Keller, Washington
Current Conditions -  °F | °C
As of 8:16 PM on Wednesday 22 Oct 2014 (Local Time) from KOMK Reporting Station
Moderate Rain Moderate Rain  
Wind Chill: 52°   Ceiling: 1500
Heat Index: 52°   Visibility: 5mi
Dew Point: 50°   Wind: 8mph
Humidity: 93%   Direction: 190°S
Pressure: 29.65"   Gusts: NA
Location:  48.08°N, 118.69°W
Report Text: KOMK 230316Z AUTO 19007KT 5SM RA BR BKN015 BKN021 OVC026 11/10 A2965 RMK AO2 P0002 T01110100
Loading
Personal Weather Stations






























Interactive Weather Map
Tropical Storm Tracking
New forecast layout! Learn more

10-Day Weather Forecast

Advertisements
Track Severe Weather on mobile